createdAt,value
2018-04-09T00:01:35.217Z,10.30
2018-04-09T00:04:03.202Z,10.30
2018-04-09T00:06:31.439Z,10.40
2018-04-09T00:08:59.466Z,10.40
2018-04-09T00:11:26.913Z,10.50
2018-04-09T00:13:55.137Z,10.60
2018-04-09T00:16:22.598Z,10.60
2018-04-09T00:18:50.059Z,10.60
2018-04-09T00:21:17.514Z,10.60
2018-04-09T00:23:44.966Z,10.70
2018-04-09T00:26:13.190Z,10.70
2018-04-09T00:28:41.414Z,10.80
2018-04-09T00:31:08.868Z,10.80
2018-04-09T00:33:36.325Z,10.90
2018-04-09T00:36:03.779Z,11.00
2018-04-09T00:38:31.224Z,10.90
2018-04-09T00:40:59.274Z,11.00
2018-04-09T00:43:29.149Z,11.10
2018-04-09T00:45:57.189Z,11.20
2018-04-09T00:48:25.001Z,11.20
2018-04-09T00:50:53.227Z,11.20
2018-04-09T00:53:32.425Z,11.20
2018-04-09T00:56:00.645Z,11.10
2018-04-09T00:58:28.127Z,11.10
2018-04-09T01:00:55.581Z,11.10
2018-04-09T01:03:23.033Z,11.00
2018-04-09T01:05:50.985Z,11.00
2018-04-09T01:08:18.442Z,11.00
2018-04-09T01:10:46.753Z,10.90
2018-04-09T01:13:14.220Z,10.90
2018-04-09T01:15:42.434Z,10.80
2018-04-09T01:18:11.515Z,10.80
2018-04-09T01:20:38.987Z,10.80
2018-04-09T01:23:06.439Z,10.80
2018-04-09T01:25:33.912Z,10.70
2018-04-09T01:28:01.377Z,10.60
2018-04-09T01:30:28.833Z,10.40
2018-04-09T01:32:56.724Z,10.50
2018-04-09T01:35:24.877Z,10.40
2018-04-09T01:37:52.353Z,10.40
2018-04-09T01:40:19.803Z,10.30
2018-04-09T01:42:48.019Z,10.20
2018-04-09T01:45:15.761Z,10.10
2018-04-09T01:47:43.205Z,10.00
2018-04-09T01:50:10.662Z,9.80
2018-04-09T01:52:38.113Z,9.70
2018-04-09T01:55:05.684Z,9.70
2018-04-09T01:57:33.120Z,9.80
2018-04-09T02:00:01.024Z,9.90
2018-04-09T02:02:29.235Z,9.90
2018-04-09T02:05:00.493Z,9.80
2018-04-09T02:07:30.814Z,9.90
2018-04-09T02:09:58.268Z,9.90
2018-04-09T02:12:26.158Z,9.90
2018-04-09T02:14:53.612Z,9.90
2018-04-09T02:17:21.078Z,10.00
2018-04-09T02:19:48.534Z,9.90
2018-04-09T02:22:15.965Z,9.80
2018-04-09T02:24:43.421Z,9.80
2018-04-09T02:27:10.871Z,9.80
2018-04-09T02:29:38.318Z,9.80
2018-04-09T02:32:07.624Z,9.80
2018-04-09T02:34:35.076Z,9.80
2018-04-09T02:37:03.678Z,9.80
2018-04-09T02:39:31.129Z,9.80
2018-04-09T02:41:58.590Z,9.80
2018-04-09T02:44:26.108Z,9.80
2018-04-09T02:46:54.326Z,9.90
2018-04-09T02:49:21.785Z,9.80
2018-04-09T02:51:49.474Z,9.80
2018-04-09T02:54:16.918Z,9.80
2018-04-09T02:56:44.364Z,9.70
2018-04-09T02:59:11.822Z,9.60
2018-04-09T03:01:55.294Z,9.50
2018-04-09T03:04:24.069Z,9.40
2018-04-09T03:06:52.289Z,9.40
2018-04-09T03:09:19.758Z,9.40
2018-04-09T03:11:47.202Z,9.50
2018-04-09T03:14:15.186Z,9.50
2018-04-09T03:16:42.647Z,9.40
2018-04-09T03:19:10.086Z,9.40
2018-04-09T03:21:37.538Z,9.30
2018-04-09T03:24:04.985Z,9.20
2018-04-09T03:26:32.857Z,9.20
2018-04-09T03:29:00.881Z,9.10
2018-04-09T03:31:28.353Z,9.00
2018-04-09T03:33:56.622Z,9.10
2018-04-09T03:36:24.027Z,9.10
2018-04-09T03:38:51.478Z,9.10
2018-04-09T03:41:18.928Z,9.30
2018-04-09T03:43:46.391Z,9.40
2018-04-09T03:46:13.837Z,9.40
2018-04-09T03:48:41.283Z,9.40
2018-04-09T03:51:09.610Z,9.40
2018-04-09T03:53:37.057Z,9.40
2018-04-09T03:56:07.121Z,9.40
2018-04-09T03:58:35.340Z,9.40
2018-04-09T04:01:02.789Z,9.30
2018-04-09T04:03:30.859Z,9.30
2018-04-09T04:05:58.318Z,9.30
2018-04-09T04:08:25.769Z,9.30
2018-04-09T04:10:54.059Z,9.20
2018-04-09T04:13:21.961Z,9.20
2018-04-09T04:16:01.883Z,9.10
2018-04-09T04:18:41.286Z,9.10
2018-04-09T04:21:20.705Z,9.00
2018-04-09T04:23:49.472Z,9.00
2018-04-09T04:26:16.926Z,8.90
2018-04-09T04:28:45.430Z,8.90
2018-04-09T04:31:13.694Z,8.80
2018-04-09T04:33:41.100Z,8.80
2018-04-09T04:36:08.856Z,8.70
2018-04-09T04:38:36.326Z,8.70
2018-04-09T04:41:03.778Z,8.70
2018-04-09T04:43:31.221Z,8.70
2018-04-09T04:45:58.679Z,8.70
2018-04-09T04:48:27.143Z,8.80
2018-04-09T04:50:55.454Z,8.90
2018-04-09T04:53:22.994Z,8.80
2018-04-09T04:55:50.455Z,8.90
2018-04-09T04:58:18.066Z,8.90
2018-04-09T05:00:45.597Z,9.00
2018-04-09T05:03:13.618Z,9.00
2018-04-09T05:05:42.746Z,9.10
2018-04-09T05:08:10.199Z,9.10
2018-04-09T05:10:37.640Z,9.20
2018-04-09T05:13:05.101Z,9.30
2018-04-09T05:15:32.564Z,9.40
2018-04-09T05:18:00.580Z,9.40
2018-04-09T05:20:28.497Z,9.50
2018-04-09T05:22:57.170Z,9.60
2018-04-09T05:25:24.640Z,9.70
2018-04-09T05:27:52.349Z,9.80
2018-04-09T05:30:19.822Z,9.80
2018-04-09T05:32:47.898Z,9.90
2018-04-09T05:35:15.426Z,10.00
2018-04-09T05:37:42.875Z,10.00
2018-04-09T05:40:10.314Z,10.10
2018-04-09T05:42:37.787Z,10.10
2018-04-09T05:45:05.280Z,10.20
2018-04-09T05:47:32.735Z,10.20
2018-04-09T05:50:00.215Z,10.30
2018-04-09T05:52:28.429Z,10.50
2018-04-09T05:54:55.938Z,10.50
2018-04-09T05:57:24.728Z,10.60
2018-04-09T05:59:54.095Z,10.70
2018-04-09T06:02:22.363Z,10.80
2018-04-09T06:04:50.667Z,10.80
2018-04-09T06:07:18.304Z,10.90
2018-04-09T06:09:45.795Z,11.00
2018-04-09T06:12:14.137Z,11.10
2018-04-09T06:14:41.707Z,11.10
2018-04-09T06:17:09.200Z,11.10
2018-04-09T06:19:38.698Z,11.30
2018-04-09T06:22:07.085Z,11.30
2018-04-09T06:24:35.566Z,11.50
2018-04-09T06:27:03.810Z,11.50
2018-04-09T06:29:31.812Z,11.50
2018-04-09T06:32:00.312Z,11.60
2018-04-09T06:34:28.027Z,11.50
2018-04-09T06:36:55.602Z,11.70
2018-04-09T06:39:24.715Z,11.90
2018-04-09T06:41:53.095Z,11.90
2018-04-09T06:44:22.218Z,12.00
2018-04-09T06:46:50.019Z,12.00
2018-04-09T06:49:17.617Z,12.10
2018-04-09T06:51:45.338Z,12.20
2018-04-09T06:54:13.009Z,12.30
2018-04-09T06:56:42.242Z,12.50
2018-04-09T06:59:10.581Z,12.70
2018-04-09T07:01:38.488Z,12.70
2018-04-09T07:04:06.819Z,12.80
2018-04-09T07:06:34.293Z,12.80
2018-04-09T07:09:01.855Z,12.90
2018-04-09T07:11:29.315Z,12.90
2018-04-09T07:13:57.769Z,13.00
2018-04-09T07:16:25.377Z,13.00
2018-04-09T07:18:53.252Z,13.10
2018-04-09T07:21:21.016Z,13.20
2018-04-09T07:23:48.679Z,13.40
2018-04-09T07:26:16.239Z,13.50
2018-04-09T07:28:43.688Z,13.60
2018-04-09T07:31:11.458Z,13.60
2018-04-09T07:33:39.020Z,13.70
2018-04-09T07:36:06.642Z,13.80
2018-04-09T07:38:34.152Z,14.00
2018-04-09T07:41:01.637Z,14.00
2018-04-09T07:43:29.518Z,14.20
2018-04-09T07:45:56.980Z,14.60
2018-04-09T07:48:24.487Z,14.90
2018-04-09T07:50:52.045Z,15.10
2018-04-09T07:53:22.071Z,15.20
2018-04-09T07:55:49.610Z,15.40
2018-04-09T07:58:17.103Z,15.70
2018-04-09T08:00:45.075Z,15.90
2018-04-09T08:03:12.529Z,16.00
2018-04-09T08:05:39.986Z,16.00
2018-04-09T08:08:07.437Z,16.00
2018-04-09T08:10:35.705Z,16.10
2018-04-09T08:13:03.341Z,16.20
2018-04-09T08:15:31.683Z,16.50
2018-04-09T08:17:59.125Z,16.50
2018-04-09T08:20:26.585Z,16.60
2018-04-09T08:22:54.740Z,16.70
2018-04-09T08:25:22.202Z,16.80
2018-04-09T08:27:49.685Z,16.70
2018-04-09T08:30:17.914Z,16.80
2018-04-09T08:32:45.477Z,16.80
2018-04-09T08:35:13.958Z,17.10
2018-04-09T08:37:41.621Z,17.40
2018-04-09T08:40:09.777Z,17.70
2018-04-09T08:42:37.391Z,17.70
2018-04-09T08:45:05.301Z,18.00
2018-04-09T08:47:33.223Z,18.20
2018-04-09T08:50:00.833Z,18.40
2018-04-09T08:52:28.431Z,18.80
2018-04-09T08:54:57.377Z,19.10
2018-04-09T08:57:26.439Z,19.50
2018-04-09T08:59:54.165Z,19.60
2018-04-09T09:02:28.155Z,19.70
2018-04-09T09:04:55.702Z,19.90
2018-04-09T09:07:23.296Z,19.80
2018-04-09T09:09:51.468Z,19.70
2018-04-09T09:12:18.941Z,19.60
2018-04-09T09:14:51.470Z,20.00
2018-04-09T09:17:19.130Z,20.20
2018-04-09T09:19:46.834Z,20.00
2018-04-09T09:22:14.845Z,19.90
2018-04-09T09:24:43.062Z,20.30
2018-04-09T09:27:10.929Z,20.30
2018-04-09T09:29:39.257Z,20.80
2018-04-09T09:32:07.494Z,20.30
2018-04-09T09:34:35.156Z,20.30
2018-04-09T09:37:02.658Z,20.30
2018-04-09T09:39:31.070Z,21.00
2018-04-09T09:41:59.158Z,21.00
2018-04-09T09:44:26.628Z,21.60
2018-04-09T09:46:54.108Z,21.80
2018-04-09T09:49:22.338Z,21.40
2018-04-09T09:51:49.837Z,21.40
2018-04-09T09:54:18.629Z,21.30
2018-04-09T09:56:46.842Z,21.00
2018-04-09T09:59:14.297Z,21.00
2018-04-09T10:01:43.193Z,20.90
2018-04-09T10:04:15.995Z,21.10
2018-04-09T10:06:43.528Z,21.30
2018-04-09T10:09:10.986Z,21.30
2018-04-09T10:11:38.445Z,21.30
2018-04-09T10:14:07.480Z,21.50
2018-04-09T10:16:35.797Z,21.70
2018-04-09T10:19:04.002Z,22.40
2018-04-09T10:21:31.884Z,22.40
2018-04-09T10:24:00.281Z,23.70
2018-04-09T10:26:27.802Z,23.70
2018-04-09T10:28:55.254Z,23.90
2018-04-09T10:31:22.812Z,23.20
2018-04-09T10:33:50.268Z,22.80
2018-04-09T10:36:17.829Z,22.30
2018-04-09T10:38:45.306Z,22.00
2018-04-09T10:41:12.753Z,21.90
2018-04-09T10:43:40.198Z,22.20
2018-04-09T10:46:07.770Z,22.50
2018-04-09T10:48:35.231Z,22.50
2018-04-09T10:51:02.684Z,22.70
2018-04-09T10:53:30.850Z,23.00
2018-04-09T10:55:58.295Z,22.90
2018-04-09T10:58:26.009Z,23.10
2018-04-09T11:00:53.601Z,23.20
2018-04-09T11:03:21.071Z,23.80
2018-04-09T11:05:48.555Z,24.50
2018-04-09T11:08:17.616Z,24.60
2018-04-09T11:10:45.066Z,24.80
2018-04-09T11:13:12.522Z,24.90
2018-04-09T11:15:40.801Z,23.70
2018-04-09T11:18:08.254Z,23.60
2018-04-09T11:20:36.293Z,23.10
2018-04-09T11:23:03.743Z,22.60
2018-04-09T11:25:31.215Z,22.70
2018-04-09T11:28:00.136Z,23.40
2018-04-09T11:30:28.466Z,23.50
2018-04-09T11:32:55.918Z,23.50
2018-04-09T11:35:24.381Z,23.40
2018-04-09T11:37:52.105Z,23.10
2018-04-09T11:40:20.315Z,23.00
2018-04-09T11:42:48.335Z,22.90
2018-04-09T11:45:16.588Z,22.90
2018-04-09T11:47:44.684Z,22.80
2018-04-09T11:50:13.025Z,22.80
2018-04-09T11:52:40.534Z,22.70
2018-04-09T11:55:09.152Z,22.50
2018-04-09T11:57:36.605Z,22.50
2018-04-09T12:00:04.096Z,22.80
2018-04-09T12:02:31.553Z,23.20
2018-04-09T12:04:59.039Z,23.70
2018-04-09T12:07:27.260Z,23.70
2018-04-09T12:09:54.748Z,23.70
2018-04-09T12:12:22.196Z,23.90
2018-04-09T12:14:49.657Z,23.90
2018-04-09T12:17:17.117Z,23.90
2018-04-09T12:19:45.033Z,24.20
2018-04-09T12:22:12.510Z,24.40
2018-04-09T12:24:40.453Z,24.80
2018-04-09T12:27:07.903Z,25.00
2018-04-09T12:29:35.419Z,25.20
2018-04-09T12:32:02.875Z,24.80
2018-04-09T12:34:30.335Z,24.70
2018-04-09T12:36:57.828Z,24.50
2018-04-09T12:39:26.098Z,23.70
2018-04-09T12:41:54.330Z,23.40
2018-04-09T12:44:21.802Z,23.30
2018-04-09T12:46:49.832Z,23.60
2018-04-09T12:49:17.309Z,23.80
2018-04-09T12:51:44.783Z,23.60
2018-04-09T12:54:12.335Z,23.50
2018-04-09T12:56:39.828Z,23.30
2018-04-09T12:59:09.208Z,23.10
2018-04-09T13:01:36.762Z,23.10
2018-04-09T13:04:04.391Z,23.00
2018-04-09T13:06:31.849Z,23.00
2018-04-09T13:08:59.322Z,23.00
2018-04-09T13:11:26.768Z,23.00
2018-04-09T13:13:54.240Z,23.10
2018-04-09T13:16:22.540Z,23.30
2018-04-09T13:18:50.074Z,23.30
2018-04-09T13:21:17.982Z,23.30
2018-04-09T13:23:46.229Z,23.20
2018-04-09T13:26:14.202Z,23.20
2018-04-09T13:28:41.667Z,23.50
2018-04-09T13:31:09.138Z,23.50
2018-04-09T13:33:38.361Z,23.00
2018-04-09T13:36:05.827Z,23.00
2018-04-09T13:38:33.310Z,22.60
2018-04-09T13:41:01.803Z,22.60
2018-04-09T13:43:29.356Z,22.50
2018-04-09T13:45:56.915Z,22.60
2018-04-09T13:48:24.373Z,22.70
2018-04-09T13:50:52.462Z,22.80
2018-04-09T13:53:20.419Z,22.80
2018-04-09T13:55:47.887Z,22.80
2018-04-09T13:58:15.334Z,23.00
2018-04-09T14:00:45.503Z,23.10
2018-04-09T14:03:13.407Z,23.10
2018-04-09T14:05:40.879Z,23.60
2018-04-09T14:08:08.803Z,24.50
2018-04-09T14:10:37.004Z,25.50
2018-04-09T14:13:04.476Z,25.50
2018-04-09T14:15:32.145Z,25.40
2018-04-09T14:17:59.615Z,25.20
2018-04-09T14:20:27.055Z,24.90
2018-04-09T14:22:55.251Z,24.80
2018-04-09T14:25:23.951Z,24.00
2018-04-09T14:27:52.183Z,24.00
2018-04-09T14:30:19.649Z,24.00
2018-04-09T14:32:49.267Z,23.90
2018-04-09T14:35:17.023Z,23.50
2018-04-09T14:37:44.473Z,23.00
2018-04-09T14:40:13.217Z,22.80
2018-04-09T14:42:40.737Z,22.90
2018-04-09T14:45:08.183Z,23.40
2018-04-09T14:47:35.715Z,24.00
2018-04-09T14:50:03.181Z,23.90
2018-04-09T14:52:30.660Z,23.70
2018-04-09T14:54:58.135Z,23.50
2018-04-09T14:57:27.081Z,23.20
2018-04-09T14:59:54.541Z,23.10
2018-04-09T15:02:22.014Z,23.20
2018-04-09T15:04:58.487Z,23.10
2018-04-09T15:07:26.094Z,23.10
2018-04-09T15:09:54.716Z,23.00
2018-04-09T15:12:22.438Z,23.00
2018-04-09T15:14:50.863Z,23.70
2018-04-09T15:17:18.806Z,23.70
2018-04-09T15:19:47.058Z,24.10
2018-04-09T15:22:15.270Z,23.80
2018-04-09T15:24:42.813Z,23.80
2018-04-09T15:27:10.283Z,23.00
2018-04-09T15:29:37.921Z,22.40
2018-04-09T15:32:05.424Z,22.20
2018-04-09T15:34:32.877Z,22.10
2018-04-09T15:37:00.419Z,22.00
2018-04-09T15:39:27.985Z,21.90
2018-04-09T15:41:55.448Z,22.00
2018-04-09T15:44:23.112Z,21.90
2018-04-09T15:46:51.133Z,21.90
2018-04-09T15:49:19.352Z,22.30
2018-04-09T15:51:46.823Z,22.30
2018-04-09T15:54:14.280Z,22.80
2018-04-09T15:56:42.702Z,23.20
2018-04-09T15:59:10.192Z,23.20
2018-04-09T16:01:37.655Z,23.10
2018-04-09T16:04:05.153Z,23.10
2018-04-09T16:06:33.392Z,22.80
2018-04-09T16:09:01.003Z,22.80
2018-04-09T16:11:29.445Z,22.30
2018-04-09T16:13:56.957Z,22.30
2018-04-09T16:16:24.666Z,22.10
2018-04-09T16:18:52.588Z,21.80
2018-04-09T16:21:20.781Z,21.60
2018-04-09T16:23:49.187Z,21.40
2018-04-09T16:26:16.627Z,21.40
2018-04-09T16:28:44.092Z,21.40
2018-04-09T16:31:11.562Z,21.40
2018-04-09T16:33:39.032Z,21.30
2018-04-09T16:36:06.491Z,21.20
2018-04-09T16:38:33.946Z,21.10
2018-04-09T16:41:02.413Z,21.20
2018-04-09T16:43:29.863Z,21.20
2018-04-09T16:45:59.027Z,21.60
2018-04-09T16:48:26.494Z,21.70
2018-04-09T16:53:27.942Z,21.50
2018-04-09T16:55:57.284Z,21.20
2018-04-09T16:58:24.759Z,20.90
2018-04-09T17:00:52.219Z,20.70
2018-04-09T17:03:20.338Z,20.40
2018-04-09T17:05:48.207Z,20.30
2018-04-09T17:08:15.699Z,20.10
2018-04-09T17:10:43.168Z,20.00
2018-04-09T17:13:10.623Z,19.90
2018-04-09T17:15:38.175Z,19.70
2018-04-09T17:18:05.787Z,19.60
2018-04-09T17:20:33.307Z,19.40
2018-04-09T17:23:00.823Z,19.30
2018-04-09T17:25:29.148Z,19.20
2018-04-09T17:27:57.377Z,19.00
2018-04-09T17:30:25.303Z,19.00
2018-04-09T17:32:53.963Z,18.70
2018-04-09T17:35:21.411Z,18.70
2018-04-09T17:37:48.875Z,18.50
2018-04-09T17:40:16.328Z,18.30
2018-04-09T17:42:43.783Z,18.20
2018-04-09T17:45:11.241Z,17.90
2018-04-09T17:47:40.245Z,17.40
2018-04-09T17:50:07.701Z,17.40
2018-04-09T17:52:35.873Z,17.20
2018-04-09T17:55:03.336Z,16.90
2018-04-09T17:57:30.795Z,16.60
2018-04-09T17:59:58.283Z,16.40
2018-04-09T18:02:25.748Z,16.10
2018-04-09T18:04:54.688Z,15.90
2018-04-09T18:07:22.237Z,15.70
2018-04-09T18:09:49.730Z,15.50
2018-04-09T18:12:17.158Z,15.30
2018-04-09T18:14:44.839Z,15.20
2018-04-09T18:17:12.299Z,15.10
2018-04-09T18:19:39.758Z,14.90
2018-04-09T18:22:07.983Z,14.80
2018-04-09T18:27:09.427Z,14.70
2018-04-09T18:29:36.903Z,14.60
2018-04-09T18:32:04.927Z,14.50
2018-04-09T18:34:33.194Z,14.30
2018-04-09T18:37:00.625Z,14.20
2018-04-09T18:39:28.492Z,14.20
2018-04-09T18:41:56.835Z,14.10
2018-04-09T18:44:24.301Z,13.90
2018-04-09T18:46:52.768Z,13.80
2018-04-09T18:49:20.226Z,13.70
2018-04-09T18:51:48.307Z,13.70
2018-04-09T18:54:15.768Z,13.70
2018-04-09T18:56:43.221Z,13.60
2018-04-09T18:59:11.296Z,13.60
2018-04-09T19:01:38.741Z,13.60
2018-04-09T19:04:06.208Z,13.60
2018-04-09T19:06:33.659Z,13.60
2018-04-09T19:09:01.103Z,13.50
2018-04-09T19:11:28.574Z,13.50
2018-04-09T19:13:56.030Z,13.40
2018-04-09T19:16:23.474Z,13.40
2018-04-09T19:18:50.938Z,13.20
2018-04-09T19:21:18.390Z,13.10
2018-04-09T19:23:45.839Z,13.10
2018-04-09T19:26:13.927Z,13.00
2018-04-09T19:28:42.694Z,12.80
2018-04-09T19:31:10.942Z,12.80
2018-04-09T19:33:38.387Z,12.80
2018-04-09T19:36:11.412Z,12.80
2018-04-09T19:38:45.372Z,12.80
2018-04-09T19:41:13.387Z,12.80
2018-04-09T19:43:41.608Z,12.80
2018-04-09T19:46:09.093Z,12.80
2018-04-09T19:48:37.151Z,12.80
2018-04-09T19:51:04.606Z,12.90
2018-04-09T19:53:32.095Z,12.90
2018-04-09T19:56:00.125Z,12.90
2018-04-09T19:58:28.150Z,12.90
2018-04-09T20:00:56.380Z,12.90
2018-04-09T20:03:24.595Z,12.90
2018-04-09T20:05:52.858Z,12.90
2018-04-09T20:08:20.908Z,12.90
2018-04-09T20:10:48.569Z,13.00
2018-04-09T20:13:16.056Z,13.00
2018-04-09T20:15:44.271Z,13.20
2018-04-09T20:18:11.766Z,13.20
2018-04-09T20:20:39.239Z,13.20
2018-04-09T20:23:07.405Z,13.20
2018-04-09T20:25:34.862Z,13.20
2018-04-09T20:28:02.910Z,13.20
2018-04-09T20:30:30.800Z,13.20
2018-04-09T20:32:58.970Z,13.20
2018-04-09T20:35:26.725Z,13.20
2018-04-09T20:37:54.172Z,13.10
2018-04-09T20:40:21.885Z,13.10
2018-04-09T20:42:49.471Z,13.10
2018-04-09T20:45:16.927Z,13.00
2018-04-09T20:47:44.587Z,13.00
2018-04-09T20:50:12.925Z,12.90
2018-04-09T20:52:40.363Z,12.90
2018-04-09T20:55:08.271Z,12.90
2018-04-09T20:57:35.731Z,12.80
2018-04-09T21:00:03.199Z,12.80
2018-04-09T21:02:30.671Z,12.70
2018-04-09T21:04:58.140Z,12.60
2018-04-09T21:07:25.612Z,12.60
2018-04-09T21:09:53.644Z,12.60
2018-04-09T21:12:21.100Z,12.60
2018-04-09T21:14:48.580Z,12.60
2018-04-09T21:17:16.836Z,12.70
2018-04-09T21:19:44.287Z,12.70
2018-04-09T21:22:11.768Z,12.80
2018-04-09T21:24:39.621Z,12.90
2018-04-09T21:27:07.072Z,12.90
2018-04-09T21:29:37.575Z,12.90
2018-04-09T21:32:05.027Z,13.00
2018-04-09T21:34:33.775Z,13.00
2018-04-09T21:37:01.679Z,12.90
2018-04-09T21:39:29.895Z,13.20
2018-04-09T21:41:58.564Z,13.20
2018-04-09T21:44:26.051Z,13.30
2018-04-09T21:46:54.831Z,13.40
2018-04-09T21:49:23.080Z,13.50
2018-04-09T21:51:50.568Z,13.50
2018-04-09T21:54:18.417Z,13.40
2018-04-09T21:56:45.947Z,13.40
2018-04-09T21:59:14.342Z,13.50
2018-04-09T22:01:41.800Z,13.50
2018-04-09T22:04:09.358Z,13.50
2018-04-09T22:06:36.815Z,13.60
2018-04-09T22:09:04.626Z,13.70
2018-04-09T22:11:32.117Z,13.70
2018-04-09T22:14:00.544Z,13.80
2018-04-09T22:16:28.008Z,13.80
2018-04-09T22:18:57.955Z,13.80
2018-04-09T22:21:26.210Z,13.70
2018-04-09T22:23:53.672Z,13.70
2018-04-09T22:26:21.159Z,13.60
2018-04-09T22:28:49.605Z,13.50
2018-04-09T22:31:17.056Z,13.50
2018-04-09T22:33:44.523Z,13.50
2018-04-09T22:36:12.423Z,13.50
2018-04-09T22:38:40.670Z,13.30
2018-04-09T22:41:08.115Z,13.30
2018-04-09T22:43:36.281Z,13.30
2018-04-09T22:46:04.251Z,13.40
2018-04-09T22:48:31.707Z,13.30
2018-04-09T22:50:59.163Z,13.40
2018-04-09T22:53:26.668Z,13.40
2018-04-09T22:55:54.892Z,13.20
2018-04-09T22:58:22.352Z,13.20
2018-04-09T23:00:49.834Z,13.10
2018-04-09T23:03:17.274Z,13.00
2018-04-09T23:05:44.755Z,12.90
2018-04-09T23:08:12.575Z,12.80
2018-04-09T23:10:40.447Z,12.80
2018-04-09T23:13:09.100Z,12.60
2018-04-09T23:15:36.551Z,12.60
2018-04-09T23:18:04.019Z,12.50
2018-04-09T23:20:31.503Z,12.40
2018-04-09T23:22:59.168Z,12.30
2018-04-09T23:25:27.188Z,12.20
2018-04-09T23:27:55.433Z,12.20
2018-04-09T23:30:23.284Z,12.10
2018-04-09T23:32:50.723Z,12.10
2018-04-09T23:35:18.213Z,12.10
2018-04-09T23:37:45.674Z,12.00
2018-04-09T23:40:13.555Z,12.00
2018-04-09T23:42:41.787Z,12.00
2018-04-09T23:45:09.240Z,11.90
2018-04-09T23:47:36.733Z,11.90
2018-04-09T23:50:04.799Z,11.80
2018-04-09T23:52:32.256Z,11.70
2018-04-09T23:54:59.944Z,11.60
2018-04-09T23:57:28.607Z,11.30
2018-04-09T23:59:56.106Z,11.30
